ESGG

Gothenburg-Landvetter Airport

Gothenburg, Sweden
METAR ESGG 182020Z 28003KT CAVOK M02/M07 Q1012 R03/19//95
Observed Flight Rules
Jan-18 @ 20:20 UTC (22 minutes ago) Visual Flight Rules
Wind Visibility Clouds
280° at 3 knots 10,000+ meters
  • Clear skies
Temperatures Readings
Current -2°C / 28°F
Dewpoint -7°C / 19°F
Humidity 69%
Altimeter 29.88" Hg
Pressure 1011.92 hPa
Elevation 169
METAR ESGG 182020Z 28003KT CAVOK M02/M07 Q1012 R03/19//95
Observed Flight Rules
Jan-18 @ 20:20 UTC
(22 minutes ago)
VFR
Wind Visibility
280° at 3 knots 10,000+ meters
Clouds
  • Clear skies
Temperature Dewpoint
-2°C / 28°F -7°C / 19°F
Humidity Altimeter Pressure
69% 29.88" Hg 1011.92 hPa